createdAt,value
2018-11-13T00:01:12.904Z,15.53
2018-11-13T00:03:40.963Z,15.61
2018-11-13T00:06:09.008Z,15.66
2018-11-13T00:08:37.096Z,15.67
2018-11-13T00:11:05.191Z,15.68
2018-11-13T00:13:33.272Z,15.65
2018-11-13T00:16:01.303Z,15.65
2018-11-13T00:18:29.403Z,15.65
2018-11-13T00:20:57.483Z,15.59
2018-11-13T00:23:25.541Z,15.34
2018-11-13T00:25:53.589Z,15.01
2018-11-13T00:28:21.671Z,14.80
2018-11-13T00:30:50.371Z,14.64
2018-11-13T00:33:18.422Z,14.57
2018-11-13T00:35:46.481Z,14.53
2018-11-13T00:38:14.572Z,14.50
2018-11-13T00:40:42.624Z,14.42
2018-11-13T00:43:10.710Z,14.42
2018-11-13T00:45:38.823Z,14.39
2018-11-13T00:48:06.860Z,14.38
2018-11-13T00:50:34.932Z,14.38
2018-11-13T00:53:02.990Z,14.42
2018-11-13T00:55:32.002Z,14.41
2018-11-13T00:58:00.084Z,14.42
2018-11-13T01:00:28.170Z,14.44
2018-11-13T01:02:56.212Z,14.44
2018-11-13T01:05:24.469Z,14.45
2018-11-13T01:07:52.468Z,14.49
2018-11-13T01:10:21.548Z,14.49
2018-11-13T01:12:50.053Z,14.50
2018-11-13T01:15:19.228Z,14.52
2018-11-13T01:17:48.009Z,14.51
2018-11-13T01:20:16.716Z,14.57
2018-11-13T01:22:44.775Z,14.60
2018-11-13T01:25:13.881Z,14.62
2018-11-13T01:27:42.345Z,14.63
2018-11-13T01:30:11.755Z,14.64
2018-11-13T01:32:40.845Z,14.64
2018-11-13T01:35:11.583Z,14.72
2018-11-13T01:37:39.624Z,14.73
2018-11-13T01:40:14.385Z,14.77
2018-11-13T01:42:42.681Z,14.80
2018-11-13T01:45:12.485Z,14.82
2018-11-13T01:47:40.650Z,14.85
2018-11-13T01:50:09.471Z,14.86
2018-11-13T01:52:37.934Z,14.88
2018-11-13T01:55:07.950Z,14.95
2018-11-13T01:57:38.229Z,14.96
2018-11-13T02:00:16.446Z,14.97
2018-11-13T02:02:45.798Z,15.00
2018-11-13T02:05:13.882Z,14.96
2018-11-13T02:07:41.946Z,14.94
2018-11-13T02:10:10.013Z,14.94
2018-11-13T02:12:38.132Z,15.07
2018-11-13T02:15:07.174Z,15.08
2018-11-13T02:17:35.638Z,15.15
2018-11-13T02:20:04.573Z,15.18
2018-11-13T02:22:32.652Z,15.23
2018-11-13T02:25:00.729Z,15.18
2018-11-13T02:27:28.808Z,15.25
2018-11-13T02:29:56.886Z,15.26
2018-11-13T02:32:24.977Z,15.15
2018-11-13T02:34:53.061Z,15.14
2018-11-13T02:37:21.145Z,15.13
2018-11-13T02:39:49.224Z,15.10
2018-11-13T02:42:17.311Z,15.05
2018-11-13T02:44:45.409Z,14.99
2018-11-13T02:47:14.046Z,15.00
2018-11-13T02:49:42.161Z,14.99
2018-11-13T02:52:10.263Z,14.97
2018-11-13T02:54:38.358Z,14.93
2018-11-13T02:57:06.468Z,14.86
2018-11-13T02:59:34.564Z,14.88
2018-11-13T03:02:02.661Z,14.89
2018-11-13T03:04:30.928Z,14.90
2018-11-13T03:06:59.008Z,14.86
2018-11-13T03:09:27.096Z,14.81
2018-11-13T03:11:55.173Z,14.81
2018-11-13T03:14:23.252Z,14.70
2018-11-13T03:16:51.358Z,14.70
2018-11-13T03:19:19.454Z,14.70
2018-11-13T03:21:47.532Z,14.68
2018-11-13T03:24:15.613Z,14.71
2018-11-13T03:26:44.124Z,14.68
2018-11-13T03:29:12.301Z,14.68
2018-11-13T03:31:40.552Z,14.67
2018-11-13T03:34:08.511Z,14.70
2018-11-13T03:36:36.621Z,14.70
2018-11-13T03:39:06.749Z,14.70
2018-11-13T03:41:34.862Z,14.69
2018-11-13T03:44:02.968Z,14.63
2018-11-13T03:46:31.054Z,14.67
2018-11-13T03:48:59.137Z,14.67
2018-11-13T03:51:27.221Z,14.67
2018-11-13T03:53:55.389Z,14.69
2018-11-13T03:56:23.447Z,14.66
2018-11-13T03:58:51.525Z,14.68
2018-11-13T04:01:19.597Z,14.66
2018-11-13T04:03:47.655Z,14.69
2018-11-13T04:06:15.750Z,14.66
2018-11-13T04:08:43.836Z,14.68
2018-11-13T04:11:11.894Z,14.69
2018-11-13T04:13:39.973Z,14.70
2018-11-13T04:16:08.044Z,14.66
2018-11-13T04:18:36.138Z,14.74
2018-11-13T04:21:04.232Z,14.95
2018-11-13T04:23:32.345Z,14.70
2018-11-13T04:26:00.428Z,14.68
2018-11-13T04:28:28.510Z,14.71
2018-11-13T04:30:56.590Z,14.70
2018-11-13T04:33:24.640Z,14.96
2018-11-13T04:35:52.693Z,15.15
2018-11-13T04:38:20.752Z,15.22
2018-11-13T04:40:48.814Z,14.86
2018-11-13T04:43:16.886Z,15.03
2018-11-13T04:45:44.975Z,15.25
2018-11-13T04:48:13.054Z,15.07
2018-11-13T04:50:41.132Z,14.81
2018-11-13T04:53:09.238Z,14.74
2018-11-13T04:55:37.312Z,14.77
2018-11-13T04:58:05.801Z,14.71
2018-11-13T05:00:33.881Z,14.69
2018-11-13T05:03:02.081Z,14.67
2018-11-13T05:05:30.045Z,14.63
2018-11-13T05:07:58.096Z,14.62
2018-11-13T05:10:26.643Z,14.62
2018-11-13T05:12:54.716Z,14.63
2018-11-13T05:15:22.790Z,14.63
2018-11-13T05:17:50.856Z,14.66
2018-11-13T05:20:19.249Z,14.67
2018-11-13T05:22:47.346Z,14.68
2018-11-13T05:25:18.867Z,14.62
2018-11-13T05:27:46.938Z,14.63
2018-11-13T05:30:18.484Z,14.59
2018-11-13T05:32:46.672Z,14.71
2018-11-13T05:35:16.074Z,14.98
2018-11-13T05:37:44.585Z,15.10
2018-11-13T05:40:14.926Z,15.12
2018-11-13T05:42:43.000Z,14.67
2018-11-13T05:45:13.274Z,14.58
2018-11-13T05:47:41.340Z,14.58
2018-11-13T05:50:11.266Z,14.56
2018-11-13T05:52:39.835Z,14.51
2018-11-13T05:55:08.214Z,14.52
2018-11-13T05:57:36.265Z,14.51
2018-11-13T06:00:04.764Z,14.50
2018-11-13T06:02:32.832Z,14.44
2018-11-13T06:05:00.892Z,14.40
2018-11-13T06:07:28.978Z,14.36
2018-11-13T06:09:57.052Z,14.33
2018-11-13T06:12:25.227Z,14.26
2018-11-13T06:14:53.278Z,14.21
2018-11-13T06:17:21.334Z,14.17
2018-11-13T06:19:49.422Z,14.12
2018-11-13T06:22:17.577Z,14.12
2018-11-13T06:24:45.644Z,14.08
2018-11-13T06:27:13.748Z,14.02
2018-11-13T06:29:41.894Z,13.96
2018-11-13T06:32:10.344Z,14.28
2018-11-13T06:34:38.909Z,14.51
2018-11-13T06:37:07.018Z,14.07
2018-11-13T06:39:35.141Z,13.98
2018-11-13T06:42:03.219Z,14.00
2018-11-13T06:44:31.299Z,13.98
2018-11-13T06:46:59.370Z,13.98
2018-11-13T06:49:27.574Z,14.04
2018-11-13T06:51:55.917Z,14.06
2018-11-13T06:54:35.457Z,14.07
2018-11-13T06:57:03.578Z,14.04
2018-11-13T06:59:31.656Z,13.98
2018-11-13T07:01:59.721Z,13.94
2018-11-13T07:04:27.809Z,13.89
2018-11-13T07:06:55.882Z,14.16
2018-11-13T07:09:23.961Z,14.37
2018-11-13T07:11:52.025Z,14.39
2018-11-13T07:14:20.140Z,14.38
2018-11-13T07:16:48.231Z,14.39
2018-11-13T07:19:16.297Z,14.38
2018-11-13T07:21:44.370Z,14.36
2018-11-13T07:24:12.473Z,14.33
2018-11-13T07:26:40.512Z,14.35
2018-11-13T07:29:08.608Z,14.38
2018-11-13T07:31:36.715Z,14.36
2018-11-13T07:34:04.917Z,14.41
2018-11-13T07:36:32.989Z,14.41
2018-11-13T07:39:01.075Z,14.35
2018-11-13T07:41:29.149Z,13.92
2018-11-13T07:43:57.257Z,14.20
2018-11-13T07:46:25.316Z,14.12
2018-11-13T07:48:53.426Z,14.34
2018-11-13T07:51:21.540Z,14.39
2018-11-13T07:53:49.587Z,14.39
2018-11-13T07:56:17.749Z,14.41
2018-11-13T07:58:45.867Z,14.38
2018-11-13T08:01:14.011Z,14.32
2018-11-13T08:03:42.172Z,14.24
2018-11-13T08:06:10.197Z,14.21
2018-11-13T08:08:38.233Z,14.31
2018-11-13T08:11:06.354Z,14.28
2018-11-13T08:13:35.164Z,14.20
2018-11-13T08:16:03.250Z,13.73
2018-11-13T08:18:32.034Z,14.18
2018-11-13T08:21:00.067Z,14.22
2018-11-13T08:23:28.171Z,14.13
2018-11-13T08:25:56.286Z,14.09
2018-11-13T08:28:24.392Z,14.07
2018-11-13T08:30:52.494Z,14.10
2018-11-13T08:33:20.603Z,14.06
2018-11-13T08:35:48.713Z,13.95
2018-11-13T08:38:16.764Z,13.97
2018-11-13T08:40:44.842Z,13.95
2018-11-13T08:43:12.905Z,13.89
2018-11-13T08:45:41.021Z,13.86
2018-11-13T08:48:09.110Z,13.89
2018-11-13T08:50:37.347Z,14.02
2018-11-13T08:53:05.820Z,13.88
2018-11-13T08:55:33.978Z,13.90
2018-11-13T08:58:02.033Z,13.95
2018-11-13T09:00:30.148Z,13.97
2018-11-13T09:02:58.197Z,14.04
2018-11-13T09:05:26.286Z,14.10
2018-11-13T09:07:54.345Z,14.05
2018-11-13T09:10:22.416Z,14.09
2018-11-13T09:12:50.492Z,13.90
2018-11-13T09:15:20.093Z,14.08
2018-11-13T09:17:48.170Z,13.98
2018-11-13T09:20:17.660Z,14.02
2018-11-13T09:22:45.751Z,13.97
2018-11-13T09:25:19.228Z,14.09
2018-11-13T09:27:47.350Z,14.13
2018-11-13T09:30:16.897Z,14.11
2018-11-13T09:32:45.149Z,14.07
2018-11-13T09:35:14.357Z,14.05
2018-11-13T09:37:42.640Z,14.01
2018-11-13T09:40:13.855Z,13.92
2018-11-13T09:42:42.714Z,13.97
2018-11-13T09:45:11.798Z,14.04
2018-11-13T09:47:40.398Z,13.96
2018-11-13T09:50:11.321Z,14.03
2018-11-13T09:52:39.706Z,14.04
2018-11-13T09:55:09.617Z,13.91
2018-11-13T09:57:37.766Z,14.08
2018-11-13T10:00:12.920Z,14.16
2018-11-13T10:02:41.659Z,14.21
2018-11-13T10:05:09.850Z,14.23
2018-11-13T10:07:37.200Z,14.31
2018-11-13T10:10:06.730Z,14.34
2018-11-13T10:12:34.753Z,14.25
2018-11-13T10:15:02.903Z,14.28
2018-11-13T10:17:31.016Z,14.15
2018-11-13T10:19:59.085Z,14.18
2018-11-13T10:22:27.163Z,14.12
2018-11-13T10:24:55.256Z,14.14
2018-11-13T10:27:23.314Z,14.20
2018-11-13T10:29:51.375Z,14.31
2018-11-13T10:32:19.469Z,14.31
2018-11-13T10:34:47.620Z,14.22
2018-11-13T10:37:15.670Z,14.31
2018-11-13T10:39:43.726Z,14.41
2018-11-13T10:42:11.809Z,14.37
2018-11-13T10:44:39.918Z,14.55
2018-11-13T10:47:08.084Z,14.50
2018-11-13T10:49:36.139Z,14.52
2018-11-13T10:52:04.257Z,14.57
2018-11-13T10:54:32.288Z,14.65
2018-11-13T10:57:00.385Z,14.63
2018-11-13T10:59:28.459Z,14.62
2018-11-13T11:02:00.561Z,14.67
2018-11-13T11:04:34.139Z,14.66
2018-11-13T11:07:02.162Z,14.53
2018-11-13T11:09:30.261Z,14.61
2018-11-13T11:11:58.358Z,14.73
2018-11-13T11:14:26.442Z,14.75
2018-11-13T11:16:54.538Z,14.84
2018-11-13T11:19:22.694Z,14.88
2018-11-13T11:21:51.138Z,14.93
2018-11-13T11:24:19.324Z,14.90
2018-11-13T11:26:47.355Z,14.87
2018-11-13T11:29:15.433Z,14.96
2018-11-13T11:31:44.006Z,14.84
2018-11-13T11:34:12.082Z,14.88
2018-11-13T11:36:40.154Z,14.89
2018-11-13T11:39:10.114Z,14.87
2018-11-13T11:41:38.420Z,14.88
2018-11-13T11:44:07.138Z,14.93
2018-11-13T11:46:35.229Z,14.94
2018-11-13T11:49:03.877Z,14.99
2018-11-13T11:51:33.072Z,14.97
2018-11-13T11:54:01.238Z,15.00
2018-11-13T11:56:29.225Z,15.00
2018-11-13T11:58:57.336Z,14.98
2018-11-13T12:01:25.484Z,14.98
2018-11-13T12:03:53.488Z,15.03
2018-11-13T12:06:21.600Z,15.15
2018-11-13T12:08:49.653Z,15.21
2018-11-13T12:11:17.714Z,15.20
2018-11-13T12:13:45.833Z,15.18
2018-11-13T12:16:13.979Z,15.22
2018-11-13T12:18:42.066Z,15.25
2018-11-13T12:21:10.083Z,15.28
2018-11-13T12:23:38.184Z,15.34
2018-11-13T12:26:06.269Z,15.34
2018-11-13T12:28:34.413Z,15.22
2018-11-13T12:31:02.608Z,15.33
2018-11-13T12:33:30.684Z,15.36
2018-11-13T12:35:58.776Z,15.55
2018-11-13T12:38:26.931Z,15.64
2018-11-13T12:40:55.047Z,15.75
2018-11-13T12:43:23.079Z,15.75
2018-11-13T12:45:51.145Z,15.80
2018-11-13T12:48:19.205Z,15.80
2018-11-13T12:50:52.732Z,15.82
2018-11-13T12:53:20.861Z,15.78
2018-11-13T12:55:49.134Z,15.77
2018-11-13T12:58:17.104Z,15.77
2018-11-13T13:00:45.252Z,15.79
2018-11-13T13:03:13.383Z,15.77
2018-11-13T13:05:41.489Z,15.76
2018-11-13T13:08:09.598Z,15.75
2018-11-13T13:10:37.693Z,15.79
2018-11-13T13:13:05.801Z,15.86
2018-11-13T13:15:33.876Z,15.84
2018-11-13T13:18:02.057Z,15.80
2018-11-13T13:20:30.114Z,15.82
2018-11-13T13:22:58.204Z,15.81
2018-11-13T13:25:26.374Z,15.75
2018-11-13T13:27:54.469Z,15.75
2018-11-13T13:30:23.957Z,15.69
2018-11-13T13:32:52.186Z,15.66
2018-11-13T13:35:34.133Z,15.68
2018-11-13T13:38:02.250Z,15.66
2018-11-13T13:40:30.361Z,15.65
2018-11-13T13:42:58.975Z,15.69
2018-11-13T13:45:27.129Z,15.69
2018-11-13T13:47:55.516Z,15.68
2018-11-13T13:50:23.581Z,15.63
2018-11-13T13:52:51.704Z,15.59
2018-11-13T13:55:21.227Z,15.56
2018-11-13T13:57:48.778Z,15.60
2018-11-13T14:00:17.180Z,15.61
2018-11-13T14:02:45.068Z,15.62
2018-11-13T14:05:13.142Z,15.55
2018-11-13T14:07:41.206Z,15.45
2018-11-13T14:10:09.901Z,15.34
2018-11-13T14:12:37.971Z,15.24
2018-11-13T14:15:07.659Z,15.14
2018-11-13T14:17:35.695Z,15.22
2018-11-13T14:20:03.794Z,15.15
2018-11-13T14:22:31.896Z,15.16
2018-11-13T14:24:59.986Z,15.21
2018-11-13T14:27:28.933Z,15.17
2018-11-13T14:29:56.970Z,15.25
2018-11-13T14:32:25.066Z,15.21
2018-11-13T14:34:53.169Z,15.10
2018-11-13T14:37:21.255Z,15.13
2018-11-13T14:39:49.475Z,15.20
2018-11-13T14:42:17.652Z,15.25
2018-11-13T14:44:45.752Z,15.16
2018-11-13T14:47:14.258Z,15.02
2018-11-13T14:49:42.328Z,15.12
2018-11-13T14:52:10.486Z,15.17
2018-11-13T14:54:38.552Z,15.13
2018-11-13T14:57:06.713Z,15.17
2018-11-13T14:59:34.861Z,15.14
2018-11-13T15:02:03.049Z,15.13
2018-11-13T15:04:31.169Z,15.10
2018-11-13T15:06:59.267Z,15.07
2018-11-13T15:09:27.394Z,15.06
2018-11-13T15:11:55.526Z,15.02
2018-11-13T15:14:23.581Z,15.01
2018-11-13T15:16:51.746Z,14.92
2018-11-13T15:19:19.833Z,14.95
2018-11-13T15:21:47.873Z,14.98
2018-11-13T15:24:15.964Z,14.86
2018-11-13T15:26:44.021Z,14.92
2018-11-13T15:29:12.128Z,14.91
2018-11-13T15:31:40.581Z,14.80
2018-11-13T15:34:08.711Z,14.81
2018-11-13T15:36:36.869Z,14.80
2018-11-13T15:39:08.601Z,14.83
2018-11-13T15:41:36.661Z,14.85
2018-11-13T15:44:05.120Z,14.83
2018-11-13T15:46:33.188Z,14.85
2018-11-13T15:49:01.306Z,14.81
2018-11-13T15:51:29.464Z,14.74
2018-11-13T15:53:57.498Z,14.69
2018-11-13T15:56:25.662Z,14.61
2018-11-13T15:58:53.752Z,14.43
2018-11-13T16:01:21.836Z,13.97
2018-11-13T16:03:49.948Z,13.86
2018-11-13T16:06:18.126Z,14.32
2018-11-13T16:08:46.332Z,14.35
2018-11-13T16:11:14.376Z,14.38
2018-11-13T16:13:42.422Z,14.33
2018-11-13T16:16:10.539Z,14.29
2018-11-13T16:18:38.725Z,14.19
2018-11-13T16:21:06.817Z,14.07
2018-11-13T16:23:34.867Z,14.07
2018-11-13T16:26:02.985Z,13.99
2018-11-13T16:28:31.050Z,13.93
2018-11-13T16:30:59.196Z,13.89
2018-11-13T16:33:27.224Z,13.84
2018-11-13T16:35:55.617Z,13.80
2018-11-13T16:38:23.810Z,13.84
2018-11-13T16:40:51.817Z,13.77
2018-11-13T16:43:19.976Z,13.76
2018-11-13T16:45:48.077Z,13.75
2018-11-13T16:48:16.266Z,13.75
2018-11-13T16:50:44.546Z,13.78
2018-11-13T16:53:12.629Z,13.84
2018-11-13T16:55:46.316Z,13.81
2018-11-13T16:58:15.608Z,13.80
2018-11-13T17:00:43.895Z,13.75
2018-11-13T17:03:11.921Z,13.67
2018-11-13T17:05:40.137Z,13.59
2018-11-13T17:08:08.131Z,13.55
2018-11-13T17:10:39.267Z,13.64
2018-11-13T17:13:07.330Z,13.51
2018-11-13T17:15:35.445Z,13.45
2018-11-13T17:18:03.977Z,13.41
2018-11-13T17:20:32.065Z,13.34
2018-11-13T17:23:00.132Z,13.25
2018-11-13T17:25:30.734Z,13.21
2018-11-13T17:27:58.797Z,13.21
2018-11-13T17:30:29.544Z,13.31
2018-11-13T17:32:58.834Z,13.28
2018-11-13T17:35:27.810Z,13.28
2018-11-13T17:37:56.599Z,13.30
2018-11-13T17:40:27.086Z,13.33
2018-11-13T17:42:56.575Z,13.33
2018-11-13T17:45:26.141Z,13.33
2018-11-13T17:47:54.266Z,13.27
2018-11-13T17:50:29.693Z,13.23
2018-11-13T17:52:57.955Z,13.19
2018-11-13T17:55:26.345Z,13.10
2018-11-13T17:57:56.071Z,13.04
2018-11-13T18:00:27.641Z,12.98
2018-11-13T18:02:55.777Z,12.93
2018-11-13T18:05:25.177Z,12.84
2018-11-13T18:07:54.008Z,12.81
2018-11-13T18:10:22.221Z,12.74
2018-11-13T18:12:50.286Z,12.72
2018-11-13T18:15:21.577Z,12.70
2018-11-13T18:17:49.961Z,12.69
2018-11-13T18:20:21.636Z,12.63
2018-11-13T18:22:49.748Z,12.62
2018-11-13T18:25:17.864Z,12.57
2018-11-13T18:27:47.421Z,12.51
2018-11-13T18:30:17.750Z,12.47
2018-11-13T18:32:46.267Z,12.44
2018-11-13T18:35:15.884Z,12.42
2018-11-13T18:37:44.469Z,12.41
2018-11-13T18:40:14.303Z,12.39
2018-11-13T18:42:43.595Z,12.38
2018-11-13T18:45:15.550Z,12.38
2018-11-13T18:47:43.676Z,12.35
2018-11-13T18:50:14.956Z,12.31
2018-11-13T18:52:43.363Z,12.30
2018-11-13T18:55:12.032Z,12.29
2018-11-13T18:57:40.838Z,12.26
2018-11-13T19:00:13.399Z,12.23
2018-11-13T19:02:41.915Z,12.20
2018-11-13T19:05:10.884Z,12.19
2018-11-13T19:07:39.398Z,12.14
2018-11-13T19:10:13.694Z,12.11
2018-11-13T19:12:41.936Z,12.08
2018-11-13T19:15:11.913Z,12.10
2018-11-13T19:17:40.014Z,11.98
2018-11-13T19:20:10.746Z,12.06
2018-11-13T19:22:38.866Z,12.03
2018-11-13T19:25:07.881Z,11.96
2018-11-13T19:27:35.950Z,11.88
2018-11-13T19:30:04.090Z,11.85
2018-11-13T19:32:32.084Z,11.83
2018-11-13T19:35:00.251Z,11.79
2018-11-13T19:37:28.306Z,11.75
2018-11-13T19:39:56.350Z,11.72
2018-11-13T19:42:24.417Z,11.59
2018-11-13T19:44:52.733Z,11.59
2018-11-13T19:47:20.805Z,11.56
2018-11-13T19:49:48.916Z,11.50
2018-11-13T19:52:16.981Z,11.46
2018-11-13T19:54:45.050Z,11.38
2018-11-13T19:57:13.141Z,11.33
2018-11-13T19:59:41.247Z,11.26
2018-11-13T20:02:09.325Z,11.24
2018-11-13T20:04:37.514Z,11.23
2018-11-13T20:07:05.758Z,11.18
2018-11-13T20:09:33.910Z,11.19
2018-11-13T20:12:02.023Z,11.12
2018-11-13T20:14:30.090Z,11.08
2018-11-13T20:16:58.201Z,11.04
2018-11-13T20:19:26.302Z,11.04
2018-11-13T20:21:54.382Z,11.01
2018-11-13T20:24:22.553Z,10.96
2018-11-13T20:26:50.573Z,10.94
2018-11-13T20:29:18.689Z,10.96
2018-11-13T20:31:46.806Z,10.92
2018-11-13T20:34:14.959Z,10.91
2018-11-13T20:36:43.082Z,10.88
2018-11-13T20:39:12.988Z,10.88
2018-11-13T20:41:41.157Z,10.87
2018-11-13T20:44:09.312Z,10.85
2018-11-13T20:46:37.439Z,10.82
2018-11-13T20:49:05.672Z,10.76
2018-11-13T20:51:33.890Z,10.73
2018-11-13T20:54:01.882Z,10.66
2018-11-13T20:56:29.985Z,10.56
2018-11-13T20:58:58.138Z,10.53
2018-11-13T21:01:26.293Z,10.53
2018-11-13T21:03:54.455Z,10.48
2018-11-13T21:06:22.656Z,10.49
2018-11-13T21:08:50.800Z,10.46
2018-11-13T21:11:18.916Z,10.45
2018-11-13T21:13:47.155Z,10.45
2018-11-13T21:16:15.370Z,10.43
2018-11-13T21:18:43.346Z,10.41
2018-11-13T21:21:11.429Z,10.37
2018-11-13T21:23:39.562Z,10.33
2018-11-13T21:26:07.684Z,10.26
2018-11-13T21:28:35.782Z,10.24
2018-11-13T21:31:03.862Z,10.20
2018-11-13T21:33:31.976Z,10.19
2018-11-13T21:36:00.066Z,10.16
2018-11-13T21:38:28.182Z,10.13
2018-11-13T21:40:56.317Z,10.08
2018-11-13T21:43:24.458Z,10.05
2018-11-13T21:45:52.505Z,10.04
2018-11-13T21:48:20.617Z,10.05
2018-11-13T21:50:48.681Z,10.04
2018-11-13T21:53:16.767Z,10.05
2018-11-13T21:55:44.963Z,10.07
2018-11-13T21:58:12.993Z,10.05
2018-11-13T22:00:41.139Z,10.03
2018-11-13T22:03:09.337Z,9.99
2018-11-13T22:05:37.853Z,9.96
2018-11-13T22:08:06.160Z,9.93
2018-11-13T22:10:34.217Z,9.89
2018-11-13T22:13:02.284Z,9.81
2018-11-13T22:15:30.916Z,9.79
2018-11-13T22:17:59.619Z,9.80
2018-11-13T22:20:27.445Z,9.80
2018-11-13T22:22:57.064Z,9.82
2018-11-13T22:25:25.848Z,9.77
2018-11-13T22:27:55.197Z,9.79
2018-11-13T22:30:24.703Z,9.76
2018-11-13T22:32:52.797Z,9.75
2018-11-13T22:35:21.814Z,9.79
2018-11-13T22:37:49.890Z,9.75
2018-11-13T22:40:19.374Z,9.75
2018-11-13T22:42:47.853Z,9.76
2018-11-13T22:45:17.763Z,9.75
2018-11-13T22:47:45.852Z,9.65
2018-11-13T22:50:19.562Z,9.63
2018-11-13T22:52:48.225Z,9.60
2018-11-13T22:55:16.728Z,9.59
2018-11-13T22:57:45.734Z,9.54
2018-11-13T23:00:23.007Z,9.54
2018-11-13T23:02:52.285Z,9.54
2018-11-13T23:05:20.669Z,9.51
2018-11-13T23:07:48.769Z,9.51
2018-11-13T23:10:17.438Z,9.53
2018-11-13T23:12:45.835Z,9.53
2018-11-13T23:15:16.376Z,9.52
2018-11-13T23:17:44.658Z,9.52
2018-11-13T23:20:14.529Z,9.39
2018-11-13T23:22:42.581Z,9.34
2018-11-13T23:25:12.426Z,9.32
2018-11-13T23:27:40.791Z,9.34
2018-11-13T23:30:13.638Z,9.34
2018-11-13T23:32:41.720Z,9.30
2018-11-13T23:35:10.752Z,9.19
2018-11-13T23:37:38.865Z,9.09
2018-11-13T23:40:09.250Z,8.67
2018-11-13T23:42:37.749Z,8.40
2018-11-13T23:45:06.533Z,8.70
2018-11-13T23:47:34.705Z,8.29
2018-11-13T23:50:02.958Z,8.22
2018-11-13T23:52:31.473Z,8.15
2018-11-13T23:54:59.549Z,8.05
2018-11-13T23:57:27.648Z,7.98
2018-11-13T23:59:56.313Z,7.98
